Iskmati Spirit — C6WJ4 — position and weather

sailwx.info

Track history (hours):
 
Tides and Currents Weather Stations Pressure Air Temp Water Temp Dewpoint Dewpoint Depression Visibility Wind Speed Wind Dir Waves Ship Positions

Iskmati Spirit

Last reported at 2018-Apr-18 23:47 UTC. Time now 2018-Apr-25 14:41 UTC.
Position N 01°14' E 103°56'.

Length 274 m; draft 15.3 m.

Type: Tanker. MMSI: 308172000.

Date/timePositionNaut miles runAvg speedWind from/ knotsBaromVisibWave heightAir tempDewpointWater temp
2018-Apr-18 23:47N 01°14' E 103°56'2 6.3
2018-Apr-18 23:30N 01°15' E 103°54'1 1.6
2018-Apr-18 22:56N 01°15' E 103°55'0 0.0
2018-Apr-18 22:20N 01°15' E 103°55'0 0.0
2018-Apr-18 21:08N 01°15' E 103°55'0 0.0
2018-Apr-18 20:47N 01°15' E 103°55'0 0.0
2018-Apr-18 20:29N 01°15' E 103°55'0 0.0
2018-Apr-18 19:59N 01°15' E 103°55'0 0.0
2018-Apr-18 19:26N 01°15' E 103°55'0 0.0
2018-Apr-18 18:50N 01°15' E 103°55'0 0.2
2018-Apr-18 18:23N 01°15' E 103°55'0 0.1
2018-Apr-18 14:47N 01°15' E 103°55'0 0.0
2018-Apr-18 06:39N 01°15' E 103°55'0 0.4
2018-Apr-18 06:29N 01°15' E 103°55'1 1.8
2018-Apr-18 06:00N 01°14' E 103°55'2 4.7
2018-Apr-18 05:29N 01°15' E 103°57'1 0.7
2018-Apr-18 03:25N 01°14' E 103°57'3 7.9
2018-Apr-18 02:59N 01°13' E 103°54'4 9.1
2018-Apr-18 02:30N 01°11' E 103°50'4 7.4
2018-Apr-18 02:00N 01°09' E 103°47'4 7.6
2018-Apr-18 01:30N 01°06' E 103°44'5 8.6
2018-Apr-18 00:57N 01°04' E 103°40'4 8.9
2018-Apr-18 00:30N 01°05' E 103°36'5 9.4
2018-Apr-17 23:59N 01°07' E 103°32'5 9.6
2018-Apr-17 23:28N 01°10' E 103°28'  
Track history (hours):
 
Tides and Currents Weather Stations Pressure Air Temp Water Temp Dewpoint Dewpoint Depression Visibility Wind Speed Wind Dir Waves Ship Positions

Iskmati Spirit

Last reported at 2018-Apr-18 23:47 UTC. Time now 2018-Apr-25 14:41 UTC.
Position N 01°14' E 103°56'.

Length 274 m; draft 15.3 m.

Type: Tanker. MMSI: 308172000.

Date/timePositionNaut miles runAvg speedWind from/ knotsBaromVisibWave heightAir tempDewpointWater temp
2018-Apr-18 23:47N 01°14' E 103°56'2 6.3
2018-Apr-18 23:30N 01°15' E 103°54'1 1.6
2018-Apr-18 22:56N 01°15' E 103°55'0 0.0
2018-Apr-18 22:20N 01°15' E 103°55'0 0.0
2018-Apr-18 21:08N 01°15' E 103°55'0 0.0
2018-Apr-18 20:47N 01°15' E 103°55'0 0.0
2018-Apr-18 20:29N 01°15' E 103°55'0 0.0
2018-Apr-18 19:59N 01°15' E 103°55'0 0.0
2018-Apr-18 19:26N 01°15' E 103°55'0 0.0
2018-Apr-18 18:50N 01°15' E 103°55'0 0.2
2018-Apr-18 18:23N 01°15' E 103°55'0 0.1
2018-Apr-18 14:47N 01°15' E 103°55'0 0.0
2018-Apr-18 06:39N 01°15' E 103°55'0 0.4
2018-Apr-18 06:29N 01°15' E 103°55'1 1.8
2018-Apr-18 06:00N 01°14' E 103°55'2 4.7
2018-Apr-18 05:29N 01°15' E 103°57'1 0.7
2018-Apr-18 03:25N 01°14' E 103°57'3 7.9
2018-Apr-18 02:59N 01°13' E 103°54'4 9.1
2018-Apr-18 02:30N 01°11' E 103°50'4 7.4
2018-Apr-18 02:00N 01°09' E 103°47'4 7.6
2018-Apr-18 01:30N 01°06' E 103°44'5 8.6
2018-Apr-18 00:57N 01°04' E 103°40'4 8.9
2018-Apr-18 00:30N 01°05' E 103°36'5 9.4
2018-Apr-17 23:59N 01°07' E 103°32'5 9.6
2018-Apr-17 23:28N 01°10' E 103°28'  

Dump ship's entire track history